Maratha Promise — V7YE5 — position and weather

sailwx.info

Track history (hours):
 
Tides and Currents Weather Stations Pressure Air Temp Water Temp Dewpoint Dewpoint Depression Visibility Wind Speed Wind Dir Waves Ship Positions

Maratha Promise

Last reported at 2014-Jul-30 16:33 UTC. Time now 2014-Jul-30 17:09 UTC.
Position N 24°33' E 118°05'.

Length 178 m; draft 8.8 m.

Type: Cargo ship. MMSI: 538004641.

Date/timePositionNaut miles runAvg speedWind from/ knotsBaromVisibWave heightAir tempDewpointWater temp
2014-Jul-30 16:33N 24°33' E 118°05'0 0.0
2014-Jul-30 15:33N 24°33' E 118°05'0 0.0
2014-Jul-30 14:33N 24°33' E 118°05'0 0.0
2014-Jul-30 13:33N 24°33' E 118°05'0 0.0
2014-Jul-30 12:33N 24°33' E 118°05'0 0.0
2014-Jul-30 11:33N 24°33' E 118°05'0 0.0
2014-Jul-30 10:33N 24°33' E 118°05'0 0.1
2014-Jul-30 09:33N 24°33' E 118°05'0 0.0
2014-Jul-30 08:33N 24°33' E 118°05'0 0.0
2014-Jul-30 07:33N 24°33' E 118°05'0 0.0
2014-Jul-30 06:33N 24°33' E 118°05'0 0.0
2014-Jul-30 05:33N 24°33' E 118°05'0 0.0
2014-Jul-30 04:33N 24°33' E 118°05'0 0.0
2014-Jul-30 03:33N 24°33' E 118°05'0 0.0
2014-Jul-30 02:33N 24°33' E 118°05'0 0.0
2014-Jul-30 01:33N 24°33' E 118°05'0 0.1
2014-Jul-30 00:33N 24°33' E 118°05'7 7.1
2014-Jul-29 23:34N 24°26' E 118°04'8 7.6
2014-Jul-29 22:33N 24°21' E 118°10'8 7.9
2014-Jul-29 21:33N 24°15' E 118°16'7 7.1
2014-Jul-29 20:33N 24°09' E 118°20'7 7.0
2014-Jul-29 19:33N 24°03' E 118°17'9 8.7
2014-Jul-29 18:33N 23°56' E 118°11'9 8.6
2014-Jul-29 17:33N 23°48' E 118°06'9 9.3
2014-Jul-29 16:34N 23°40' E 118°02'8 7.7
2014-Jul-29 15:33N 23°34' E 117°57'12 9.6
2014-Jul-29 14:18N 23°24' E 117°49'911.4
2014-Jul-29 13:32N 23°17' E 117°43'43 9.9
2014-Jul-29 09:14N 22°49' E 117°08'8 9.7
2014-Jul-29 08:27N 22°45' E 117°02'16311.4
2014-Jul-28 18:06N 22°09' E 114°09'2 0.2
2014-Jul-28 08:05N 22°09' E 114°11'  
Track history (hours):
 
Tides and Currents Weather Stations Pressure Air Temp Water Temp Dewpoint Dewpoint Depression Visibility Wind Speed Wind Dir Waves Ship Positions

Maratha Promise

Last reported at 2014-Jul-30 16:33 UTC. Time now 2014-Jul-30 17:09 UTC.
Position N 24°33' E 118°05'.

Length 178 m; draft 8.8 m.

Type: Cargo ship. MMSI: 538004641.

Date/timePositionNaut miles runAvg speedWind from/ knotsBaromVisibWave heightAir tempDewpointWater temp
2014-Jul-30 16:33N 24°33' E 118°05'0 0.0
2014-Jul-30 15:33N 24°33' E 118°05'0 0.0
2014-Jul-30 14:33N 24°33' E 118°05'0 0.0
2014-Jul-30 13:33N 24°33' E 118°05'0 0.0
2014-Jul-30 12:33N 24°33' E 118°05'0 0.0
2014-Jul-30 11:33N 24°33' E 118°05'0 0.0
2014-Jul-30 10:33N 24°33' E 118°05'0 0.1
2014-Jul-30 09:33N 24°33' E 118°05'0 0.0
2014-Jul-30 08:33N 24°33' E 118°05'0 0.0
2014-Jul-30 07:33N 24°33' E 118°05'0 0.0
2014-Jul-30 06:33N 24°33' E 118°05'0 0.0
2014-Jul-30 05:33N 24°33' E 118°05'0 0.0
2014-Jul-30 04:33N 24°33' E 118°05'0 0.0
2014-Jul-30 03:33N 24°33' E 118°05'0 0.0
2014-Jul-30 02:33N 24°33' E 118°05'0 0.0
2014-Jul-30 01:33N 24°33' E 118°05'0 0.1
2014-Jul-30 00:33N 24°33' E 118°05'7 7.1
2014-Jul-29 23:34N 24°26' E 118°04'8 7.6
2014-Jul-29 22:33N 24°21' E 118°10'8 7.9
2014-Jul-29 21:33N 24°15' E 118°16'7 7.1
2014-Jul-29 20:33N 24°09' E 118°20'7 7.0
2014-Jul-29 19:33N 24°03' E 118°17'9 8.7
2014-Jul-29 18:33N 23°56' E 118°11'9 8.6
2014-Jul-29 17:33N 23°48' E 118°06'9 9.3
2014-Jul-29 16:34N 23°40' E 118°02'8 7.7
2014-Jul-29 15:33N 23°34' E 117°57'12 9.6
2014-Jul-29 14:18N 23°24' E 117°49'911.4
2014-Jul-29 13:32N 23°17' E 117°43'43 9.9
2014-Jul-29 09:14N 22°49' E 117°08'8 9.7
2014-Jul-29 08:27N 22°45' E 117°02'16311.4
2014-Jul-28 18:06N 22°09' E 114°09'2 0.2
2014-Jul-28 08:05N 22°09' E 114°11'  

Dump ship's entire track history